Time;durP1;ratioP1;P1;durP2;ratioP2;P2;SDS_P1;SDS_P2;PMS_P1;PMS_P2;Temp;Humidity;BMP_temperature;BMP_pressure;BME280_temperature;BME280_humidity;BME280_pressure;Samples;Min_cycle;Max_cycle;Signal;HPM_P1;HPM_P2
2023/09/05 00:00:10;;;;;;;5.38;2.28;;;17.30;99.90;;;16.66;100.00;98087.59;4989266;28;20054;-75
2023/09/05 00:02:38;;;;;;;4.30;2.42;;;17.40;99.90;;;16.58;100.00;98090.66;5000478;28;20056;-75
2023/09/05 00:05:11;;;;;;;8.70;2.38;;;17.40;99.90;;;16.63;100.00;98088.59;5001828;28;20050;-75
2023/09/05 00:07:39;;;;;;;8.45;2.05;;;17.40;99.90;;;16.67;100.00;98089.25;5001609;28;20054;-75
2023/09/05 00:10:13;;;;;;;3.42;2.03;;;17.40;99.90;;;16.75;100.00;98084.41;5001565;28;20216;-75
2023/09/05 00:12:42;;;;;;;3.65;2.20;;;17.40;99.90;;;16.64;100.00;98090.28;5013615;28;20131;-75
2023/09/05 00:15:13;;;;;;;4.82;1.98;;;17.50;99.90;;;16.68;100.00;98085.72;5000117;28;20058;-75
2023/09/05 00:17:44;;;;;;;4.95;2.33;;;17.50;99.90;;;16.68;100.00;98089.19;4984903;28;20050;-75
2023/09/05 00:20:15;;;;;;;5.25;2.15;;;17.50;99.90;;;16.64;100.00;98076.34;5000469;28;20054;-75
2023/09/05 00:22:45;;;;;;;5.30;2.42;;;17.50;99.90;;;16.56;100.00;98075.94;5003356;28;20957;-75
2023/09/05 00:25:15;;;;;;;3.55;1.88;;;17.40;99.90;;;16.55;100.00;98082.13;5002512;28;20117;-73
2023/09/05 00:27:43;;;;;;;7.25;2.45;;;17.40;99.90;;;16.54;100.00;98077.84;4998470;28;20054;-74
2023/09/05 00:30:13;;;;;;;4.68;2.22;;;17.40;99.90;;;16.55;100.00;98077.72;5001497;28;20056;-75
2023/09/05 00:32:40;;;;;;;4.90;2.38;;;17.40;99.90;;;16.43;100.00;98083.69;5003147;28;20459;-75
2023/09/05 00:35:08;;;;;;;3.97;2.22;;;17.40;99.90;;;16.35;100.00;98084.13;5001894;28;20107;-74
2023/09/05 00:37:35;;;;;;;4.50;2.20;;;17.40;99.90;;;16.45;100.00;98084.44;4997744;28;20115;-75
2023/09/05 00:40:03;;;;;;;6.25;2.05;;;17.30;99.90;;;16.41;100.00;98085.56;4999716;28;20738;-74
2023/09/05 00:42:30;;;;;;;5.00;2.13;;;17.30;99.90;;;16.38;100.00;98088.38;4998720;28;20795;-74
2023/09/05 00:44:58;;;;;;;4.95;2.47;;;17.20;99.90;;;16.11;100.00;98094.25;5000409;28;20058;-75
2023/09/05 00:47:27;;;;;;;3.85;2.30;;;17.20;99.90;;;16.24;100.00;98091.78;5011498;28;20148;-75
2023/09/05 00:50:05;;;;;;;5.30;2.20;;;17.10;99.90;;;15.98;100.00;98081.00;5000656;28;20049;-74
2023/09/05 00:52:33;;;;;;;3.95;2.28;;;17.00;99.90;;;15.89;100.00;98087.59;4999984;28;20650;-75
2023/09/05 00:55:01;;;;;;;3.80;2.00;;;17.00;99.90;;;15.76;100.00;98077.88;5005178;28;20038;-74
2023/09/05 00:57:28;;;;;;;5.75;2.40;;;16.90;99.90;;;15.91;100.00;98082.28;4982364;28;20129;-74
2023/09/05 00:59:56;;;;;;;5.43;2.58;;;16.80;99.90;;;15.94;100.00;98069.00;4999249;28;20088;-74
2023/09/05 01:02:23;;;;;;;3.70;2.22;;;16.80;99.90;;;15.61;100.00;98072.53;4998356;28;20985;-75
2023/09/05 01:04:50;;;;;;;5.97;2.70;;;16.80;99.90;;;15.72;100.00;98072.00;5001380;28;20576;-75
2023/09/05 01:07:32;;;;;;;5.07;2.40;;;16.70;99.90;;;15.51;100.00;98071.38;5003557;28;20124;-75
2023/09/05 01:10:15;;;;;;;;;;;16.60;99.90;;;15.58;100.00;98074.50;4997129;28;20112;-74
2023/09/05 01:12:42;;;;;;;5.63;2.45;;;16.50;99.90;;;15.43;100.00;98063.09;5002884;28;19999;-75
2023/09/05 01:15:09;;;;;;;4.72;2.05;;;16.50;99.90;;;15.46;100.00;98073.38;5002668;28;20089;-75
2023/09/05 01:17:36;;;;;;;4.80;2.60;;;16.40;99.90;;;15.18;100.00;98069.63;4999454;28;20037;-75
2023/09/05 01:20:06;;;;;;;4.38;2.47;;;16.30;99.90;;;15.15;100.00;98069.81;5001192;28;20148;-75
2023/09/05 01:23:02;;;;;;;5.43;2.58;;;16.20;99.90;;;15.22;100.00;98078.19;4999650;28;20054;-75
2023/09/05 01:25:30;;;;;;;6.43;2.63;;;16.20;99.90;;;15.17;100.00;98074.97;5002515;28;20064;-75
2023/09/05 01:28:00;;;;;;;3.95;2.40;;;16.20;99.90;;;15.19;100.00;98071.34;4997422;28;20054;-75
2023/09/05 01:30:28;;;;;;;8.18;3.13;;;16.20;99.90;;;15.23;100.00;98067.63;4996166;28;20057;-75
2023/09/05 01:32:55;;;;;;;4.43;2.50;;;16.10;99.90;;;15.14;100.00;98062.88;5000017;28;20132;-74
2023/09/05 01:35:22;;;;;;;4.22;2.13;;;16.10;99.90;;;15.16;100.00;98062.81;5000993;28;20050;-75
2023/09/05 01:37:49;;;;;;;3.85;2.13;;;16.10;99.90;;;15.19;100.00;98063.50;5005272;28;20107;-74
2023/09/05 01:40:17;;;;;;;4.70;2.88;;;16.10;99.90;;;15.06;100.00;98058.06;5002847;28;20057;-75
2023/09/05 01:42:44;;;;;;;4.82;3.22;;;16.10;99.90;;;15.10;100.00;98065.75;4999442;28;20046;-74
2023/09/05 01:45:11;;;;;;;7.93;3.10;;;16.00;99.90;;;15.16;100.00;98058.41;5015775;28;20046;-74
2023/09/05 01:47:39;;;;;;;6.03;3.15;;;16.00;99.90;;;15.20;100.00;98048.66;4984080;28;20061;-75
2023/09/05 01:50:07;;;;;;;5.28;3.20;;;16.10;99.90;;;15.24;100.00;98051.00;5000371;28;20050;-75
2023/09/05 01:52:34;;;;;;;3.88;2.15;;;16.10;99.90;;;15.31;100.00;98048.06;4986627;28;20140;-75
2023/09/05 01:55:01;;;;;;;4.90;3.38;;;16.10;99.90;;;15.30;100.00;98047.22;5000554;28;20042;-75
2023/09/05 01:57:28;;;;;;;3.80;2.25;;;16.10;99.90;;;15.25;100.00;98050.06;5001729;28;20050;-75
2023/09/05 01:59:55;;;;;;;4.65;2.53;;;16.20;99.90;;;15.27;100.00;98050.84;4998087;28;20410;-75
2023/09/05 02:02:22;;;;;;;4.32;2.45;;;16.10;99.90;;;15.33;100.00;98047.06;4996139;28;20062;-75
2023/09/05 02:04:49;;;;;;;6.13;1.90;;;16.20;99.90;;;15.43;100.00;98055.25;5000685;28;20049;-75
2023/09/05 02:07:18;;;;;;;4.72;2.35;;;16.20;99.90;;;15.42;100.00;98040.50;4999398;28;20046;-75
2023/09/05 02:09:45;;;;;;;4.30;2.22;;;16.30;99.90;;;15.37;100.00;98045.97;4985176;28;20077;-75
2023/09/05 02:12:15;;;;;;;3.13;1.52;;;16.20;99.90;;;15.37;100.00;98043.38;5002175;28;20144;-75
2023/09/05 02:14:47;;;;;;;4.25;2.05;;;16.30;99.90;;;15.38;100.00;98047.66;4997030;28;20073;-76
2023/09/05 02:17:20;;;;;;;5.72;2.35;;;16.30;99.90;;;15.38;100.00;98044.19;4998415;28;20061;-75
2023/09/05 02:19:47;;;;;;;4.63;2.28;;;16.30;99.90;;;15.36;100.00;98048.66;5001798;28;20081;-75
2023/09/05 02:22:14;;;;;;;3.58;2.03;;;16.30;99.90;;;15.31;100.00;98055.94;4998527;28;20065;-75
2023/09/05 02:24:41;;;;;;;3.95;2.38;;;16.20;99.90;;;15.29;100.00;98052.53;5000250;28;20046;-75
2023/09/05 02:27:08;;;;;;;4.07;2.22;;;16.20;99.90;;;15.21;100.00;98059.03;4998683;28;20093;-75
2023/09/05 02:29:36;;;;;;;4.43;2.33;;;16.20;99.90;;;15.14;100.00;98057.66;4999771;28;20054;-75
2023/09/05 02:32:04;;;;;;;5.72;1.95;;;16.10;99.90;;;15.11;100.00;98062.22;5016738;28;20125;-74
2023/09/05 02:34:31;;;;;;;3.20;1.83;;;16.00;99.90;;;14.99;100.00;98051.47;4999164;28;20507;-75
2023/09/05 02:37:00;;;;;;;5.60;1.80;;;16.00;99.90;;;14.98;100.00;98056.78;5001393;28;20149;-75
2023/09/05 02:39:27;;;;;;;4.18;2.10;;;16.00;99.90;;;14.96;100.00;98054.28;5004287;28;20137;-74
2023/09/05 02:41:54;;;;;;;3.80;2.17;;;15.90;99.90;;;15.04;100.00;98054.69;5006398;28;20046;-75
2023/09/05 02:44:22;;;;;;;5.05;2.08;;;16.00;99.90;;;15.09;100.00;98057.06;5004036;28;20084;-75
2023/09/05 02:46:51;;;;;;;5.57;2.13;;;16.00;99.90;;;15.04;100.00;98054.69;5005322;28;20062;-75
2023/09/05 02:49:18;;;;;;;3.72;1.85;;;16.00;99.90;;;15.13;100.00;98058.59;5014539;28;20578;-75
2023/09/05 02:51:46;;;;;;;3.63;1.85;;;16.00;99.90;;;15.05;100.00;98050.28;5005509;28;20128;-75
2023/09/05 02:54:13;;;;;;;3.50;2.00;;;16.00;99.90;;;14.95;100.00;98042.09;4998562;28;20049;-74
2023/09/05 02:56:41;;;;;;;4.72;2.15;;;16.00;99.90;;;15.07;100.00;98038.00;5016605;28;20507;-75
2023/09/05 02:59:08;;;;;;;4.40;2.00;;;16.00;99.90;;;14.91;100.00;98037.13;4997406;28;20086;-75
2023/09/05 03:01:35;;;;;;;4.65;2.10;;;15.90;99.90;;;14.85;100.00;98035.69;5002365;28;20549;-76
2023/09/05 03:04:02;;;;;;;3.03;1.88;;;15.90;99.90;;;14.81;100.00;98036.78;4986550;28;20053;-75
2023/09/05 03:06:30;;;;;;;4.75;2.03;;;15.80;99.90;;;14.57;100.00;98037.13;5004100;28;20124;-75
2023/09/05 03:08:57;;;;;;;6.68;2.53;;;15.70;99.90;;;14.73;100.00;98028.47;5003800;28;20582;-75
2023/09/05 03:11:24;;;;;;;3.17;1.70;;;15.70;99.90;;;14.83;100.00;98041.00;4986205;28;20139;-74
2023/09/05 03:13:51;;;;;;;4.35;1.70;;;15.70;99.90;;;14.85;100.00;98038.31;5000634;28;20072;-75
2023/09/05 03:16:18;;;;;;;4.15;1.75;;;15.70;99.90;;;14.86;100.00;98045.22;4989746;28;20069;-75
2023/09/05 03:18:46;;;;;;;4.05;1.73;;;15.80;99.90;;;14.73;100.00;98038.94;4996548;28;20122;-75
2023/09/05 03:21:12;;;;;;;4.25;2.03;;;15.80;99.90;;;14.75;100.00;98040.53;5002128;28;20801;-74
2023/09/05 03:23:39;;;;;;;4.35;2.10;;;15.70;99.90;;;14.78;100.00;98037.78;5005596;28;20149;-75
2023/09/05 03:26:08;;;;;;;4.25;2.08;;;15.70;99.90;;;14.74;100.00;98036.25;5002547;28;20061;-75
2023/09/05 03:28:45;;;;;;;5.85;2.53;;;15.70;99.90;;;14.58;100.00;98046.66;4999797;28;20138;-75
2023/09/05 03:31:12;;;;;;;5.22;1.98;;;15.60;99.90;;;14.64;100.00;98046.34;5000922;28;20151;-74
2023/09/05 03:33:39;;;;;;;4.70;1.73;;;15.60;99.90;;;14.74;100.00;98035.41;5000873;28;20053;-75
2023/09/05 03:36:09;;;;;;;3.70;1.90;;;15.60;99.90;;;14.58;100.00;98041.41;5006510;28;20129;-75
2023/09/05 03:38:36;;;;;;;3.30;1.52;;;15.60;99.90;;;14.58;100.00;98041.41;5003235;28;20049;-75
2023/09/05 03:41:04;;;;;;;4.47;2.00;;;15.60;99.90;;;14.50;100.00;98042.69;5003792;28;20652;-75
2023/09/05 03:43:31;;;;;;;8.25;2.05;;;15.60;99.90;;;14.50;100.00;98045.31;4999789;28;20133;-75
2023/09/05 03:46:00;;;;;;;4.88;2.17;;;15.50;99.90;;;14.49;100.00;98047.09;4999672;28;20160;-75
2023/09/05 03:48:27;;;;;;;4.15;1.80;;;15.40;99.90;;;14.44;100.00;98042.09;4986697;28;20050;-74
2023/09/05 03:50:54;;;;;;;7.55;2.35;;;15.40;99.90;;;14.45;100.00;98037.72;5002307;28;20047;-75
2023/09/05 03:53:21;;;;;;;4.90;2.03;;;15.40;99.90;;;14.38;100.00;98038.94;5001043;28;20054;-74
2023/09/05 03:55:49;;;;;;;6.72;1.85;;;15.40;99.90;;;14.47;100.00;98030.63;4988292;28;20148;-74
2023/09/05 03:58:17;;;;;;;4.38;2.15;;;15.30;99.90;;;14.39;100.00;98038.00;5001625;28;20057;-75
2023/09/05 04:00:44;;;;;;;4.25;2.17;;;15.40;99.90;;;14.48;100.00;98040.16;5003210;28;20100;-74
2023/09/05 04:03:12;;;;;;;3.85;1.98;;;15.40;99.90;;;14.43;100.00;98032.56;4998287;28;20053;-74
2023/09/05 04:05:40;;;;;;;3.28;1.75;;;15.40;99.90;;;14.40;100.00;98035.31;4999854;28;20137;-74
2023/09/05 04:08:08;;;;;;;2.88;1.60;;;15.40;99.90;;;14.17;100.00;98040.88;5000420;28;20515;-74
2023/09/05 04:10:36;;;;;;;3.88;1.88;;;15.30;99.90;;;14.28;100.00;98041.19;5019670;28;20429;-75
2023/09/05 04:13:03;;;;;;;4.97;2.00;;;15.30;99.90;;;14.20;100.00;98046.78;5000154;28;20057;-76
2023/09/05 04:15:32;;;;;;;3.88;1.75;;;15.20;99.90;;;14.24;100.00;98047.47;5002646;28;20465;-76
2023/09/05 04:18:00;;;;;;;4.07;1.88;;;15.20;99.90;;;14.26;100.00;98045.63;5002402;28;20050;-75
2023/09/05 04:20:28;;;;;;;6.15;2.45;;;15.20;99.90;;;14.22;100.00;98038.88;5003527;28;20053;-74
2023/09/05 04:22:56;;;;;;;5.03;2.17;;;15.20;99.90;;;14.18;100.00;98050.38;4999132;28;20525;-76
2023/09/05 04:25:27;;;;;;;5.05;2.00;;;15.20;99.90;;;13.89;100.00;98049.19;5001372;28;20060;-75
2023/09/05 04:27:54;;;;;;;9.85;1.70;;;15.10;99.90;;;13.88;100.00;98047.50;4991824;28;20061;-75
2023/09/05 04:30:21;;;;;;;4.03;2.08;;;14.90;99.90;;;13.66;100.00;98050.28;4984040;28;20054;-75
2023/09/05 04:32:48;;;;;;;5.35;2.30;;;14.90;99.90;;;13.76;100.00;98055.00;5002018;28;20552;-76
2023/09/05 04:35:16;;;;;;;4.13;1.90;;;14.80;99.90;;;13.54;100.00;98060.38;5000264;28;20085;-75
2023/09/05 04:37:43;;;;;;;4.28;2.30;;;14.70;99.90;;;13.76;100.00;98064.59;4998576;28;20049;-75
2023/09/05 04:40:11;;;;;;;5.95;2.03;;;14.70;99.90;;;13.68;100.00;98059.72;4998631;28;20050;-75
2023/09/05 04:42:39;;;;;;;3.30;1.88;;;14.70;99.90;;;13.61;100.00;98068.78;4997674;28;20133;-75
2023/09/05 04:45:07;;;;;;;5.22;2.08;;;14.60;99.90;;;13.26;100.00;98062.56;5000963;28;20133;-75
2023/09/05 04:47:34;;;;;;;4.75;1.77;;;14.60;99.90;;;13.34;100.00;98066.56;5001393;28;20494;-75
2023/09/05 04:50:02;;;;;;;5.65;2.10;;;14.50;99.90;;;13.53;100.00;98068.31;4999641;28;20054;-75
2023/09/05 04:52:30;;;;;;;4.97;2.08;;;14.50;99.90;;;13.43;100.00;98065.25;4999044;28;20502;-74
2023/09/05 04:54:59;;;;;;;4.50;1.85;;;14.50;99.90;;;13.45;100.00;98065.19;5005029;28;20085;-75
2023/09/05 04:57:28;;;;;;;4.35;2.10;;;14.50;99.90;;;13.45;100.00;98062.59;4999491;28;20042;-75
2023/09/05 04:59:59;;;;;;;5.82;2.20;;;14.50;99.90;;;13.44;100.00;98069.56;4992601;28;20081;-75
2023/09/05 05:02:28;;;;;;;3.33;1.55;;;14.40;99.90;;;13.41;100.00;98071.47;5001612;28;20474;-75
2023/09/05 05:04:56;;;;;;;3.58;1.70;;;14.40;99.90;;;13.72;100.00;98078.72;4997465;28;20530;-74
2023/09/05 05:07:23;;;;;;;6.50;2.10;;;14.40;99.90;;;13.54;100.00;98083.03;4997723;28;20046;-75
2023/09/05 05:09:50;;;;;;;3.70;1.83;;;14.50;99.90;;;13.47;100.00;98081.63;4998354;28;20097;-75
2023/09/05 05:12:18;;;;;;;6.28;1.88;;;14.50;99.90;;;13.32;100.00;98086.63;4998783;28;20061;-75
2023/09/05 05:14:45;;;;;;;3.50;1.60;;;14.50;99.90;;;13.29;100.00;98088.53;4997669;28;20065;-76
2023/09/05 05:17:15;;;;;;;2.85;1.40;;;14.50;99.90;;;13.38;100.00;98093.31;4999971;28;20096;-75
2023/09/05 05:19:42;;;;;;;3.72;1.65;;;14.40;99.90;;;13.40;100.00;98081.06;5005847;28;20502;-75
2023/09/05 05:22:11;;;;;;;4.68;2.05;;;14.30;99.90;;;13.47;100.00;98090.28;4999326;28;20050;-75
2023/09/05 05:24:38;;;;;;;4.85;1.67;;;14.30;99.90;;;13.58;100.00;98084.56;5001012;28;20518;-75
2023/09/05 05:27:06;;;;;;;4.30;1.75;;;14.30;99.90;;;13.60;100.00;98085.34;4994659;28;20042;-75
2023/09/05 05:29:33;;;;;;;4.93;1.80;;;14.40;99.90;;;13.54;100.00;98078.66;4998606;28;20056;-75
2023/09/05 05:32:01;;;;;;;6.07;2.13;;;14.50;99.90;;;13.48;100.00;98078.94;4994897;28;20049;-75
2023/09/05 05:34:31;;;;;;;4.47;1.77;;;14.50;99.90;;;13.56;100.00;98082.03;4999281;28;20050;-75
2023/09/05 05:36:58;;;;;;;6.93;2.15;;;14.50;99.90;;;13.55;100.00;98074.31;5015018;28;20116;-75
2023/09/05 05:39:26;;;;;;;2.60;1.33;;;14.50;99.90;;;13.58;100.00;98079.34;4993723;28;20176;-76
2023/09/05 05:41:53;;;;;;;4.88;1.20;;;14.50;99.90;;;13.47;100.00;98076.41;4999591;28;20099;-75
2023/09/05 05:44:21;;;;;;;4.32;1.60;;;14.50;99.90;;;13.49;100.00;98082.41;4988661;28;20814;-75
2023/09/05 05:46:48;;;;;;;5.18;2.08;;;14.50;99.90;;;13.79;100.00;98087.94;4975400;28;20050;-75
2023/09/05 05:49:16;;;;;;;4.57;1.63;;;14.50;99.90;;;13.83;100.00;98092.09;4997613;28;20413;-75
2023/09/05 05:51:43;;;;;;;6.10;1.88;;;14.50;99.90;;;13.73;100.00;98089.09;4997649;28;20046;-75
2023/09/05 05:54:10;;;;;;;4.22;1.70;;;14.60;99.90;;;13.69;100.00;98089.31;4999007;28;20054;-75
2023/09/05 05:56:37;;;;;;;3.28;1.58;;;14.60;99.90;;;14.00;100.00;98092.16;5001276;28;20430;-75
2023/09/05 05:59:06;;;;;;;3.47;1.73;;;14.60;99.90;;;14.14;100.00;98088.88;4988354;28;20058;-75
2023/09/05 06:01:34;;;;;;;2.53;1.30;;;14.80;99.90;;;14.13;100.00;98094.16;4998113;28;20046;-75
2023/09/05 06:04:01;;;;;;;2.78;1.42;;;14.90;99.90;;;14.26;100.00;98097.84;5018917;28;20140;-77
2023/09/05 06:06:28;;;;;;;7.55;1.85;;;14.90;99.90;;;14.18;100.00;98099.97;4986675;28;20133;-74
2023/09/05 06:08:55;;;;;;;5.03;1.60;;;14.90;99.90;;;14.34;100.00;98094.84;5002804;28;20058;-75
2023/09/05 06:11:23;;;;;;;3.95;1.42;;;15.00;99.90;;;14.53;100.00;98095.63;4999749;28;20212;-75
2023/09/05 06:13:52;;;;;;;4.18;1.38;;;15.10;99.90;;;14.89;100.00;98094.69;4985544;28;20057;-74
2023/09/05 06:16:20;;;;;;;4.78;1.55;;;15.30;99.90;;;14.85;100.00;98093.19;4985990;28;20491;-75
2023/09/05 06:18:48;;;;;;;3.50;1.27;;;15.40;99.90;;;14.98;100.00;98091.59;5001349;28;20076;-75
2023/09/05 06:21:15;;;;;;;3.83;1.52;;;15.50;99.90;;;15.22;100.00;98086.88;4998457;28;20175;-74
2023/09/05 06:23:43;;;;;;;2.58;1.30;;;15.70;99.90;;;15.44;100.00;98093.53;5000197;28;20073;-75
2023/09/05 06:26:10;;;;;;;6.28;1.45;;;15.90;99.90;;;15.60;100.00;98089.19;5011356;28;20542;-74
2023/09/05 06:28:38;;;;;;;3.13;1.23;;;16.00;99.90;;;15.94;100.00;98087.31;4995693;28;20776;-74
2023/09/05 06:31:06;;;;;;;2.92;1.48;;;16.20;99.90;;;15.95;100.00;98091.66;4997673;28;20078;-75
2023/09/05 06:33:33;;;;;;;3.20;1.60;;;16.40;99.90;;;16.05;100.00;98084.09;5000194;28;20062;-75
2023/09/05 06:36:08;;;;;;;2.80;1.38;;;16.50;99.90;;;16.20;100.00;98082.41;4993370;28;20078;-75
2023/09/05 06:38:35;;;;;;;3.05;1.50;;;16.60;99.90;;;16.42;100.00;98087.22;4989182;28;20068;-75
2023/09/05 06:41:07;;;;;;;3.30;1.10;;;16.80;99.90;;;16.65;100.00;98086.75;5001956;28;20147;-75
2023/09/05 06:43:35;;;;;;;5.57;1.50;;;16.90;99.90;;;16.81;100.00;98078.84;4988515;28;20542;-75
2023/09/05 06:46:04;;;;;;;3.70;1.20;;;17.10;99.90;;;16.90;100.00;98087.91;4997648;28;20073;-75
2023/09/05 06:48:34;;;;;;;2.78;1.30;;;17.30;99.90;;;16.96;100.00;98081.47;4998450;28;20129;-75
2023/09/05 06:51:01;;;;;;;4.25;1.60;;;17.40;99.90;;;17.10;100.00;98087.56;4999465;28;20062;-74
2023/09/05 06:53:29;;;;;;;4.18;1.42;;;17.50;99.90;;;17.22;100.00;98087.75;4997506;28;20429;-75
2023/09/05 06:55:57;;;;;;;2.38;1.20;;;17.60;99.90;;;17.46;100.00;98095.88;4985900;28;20057;-76
2023/09/05 06:58:26;;;;;;;3.08;1.60;;;17.80;99.90;;;17.81;100.00;98098.06;4984519;28;20058;-75
2023/09/05 07:00:55;;;;;;;3.38;1.25;;;17.90;99.90;;;17.95;100.00;98098.06;4995997;28;20088;-75
2023/09/05 07:03:24;;;;;;;2.15;1.23;;;18.10;99.90;;;18.19;100.00;98099.09;5010281;28;20204;-75
2023/09/05 07:05:53;;;;;;;5.28;1.48;;;18.40;99.90;;;18.27;100.00;98103.00;5011662;28;20068;-75
2023/09/05 07:08:23;;;;;;;3.53;1.30;;;18.60;99.90;;;18.22;100.00;98105.09;4993225;28;20064;-75
2023/09/05 07:10:51;;;;;;;3.15;1.48;;;18.70;99.90;;;18.29;100.00;98104.59;4995053;28;20058;-76
2023/09/05 07:13:18;;;;;;;4.38;1.30;;;18.80;99.90;;;18.37;100.00;98106.72;5003279;28;20542;-75
2023/09/05 07:15:45;;;;;;;3.55;1.75;;;18.90;99.90;;;18.54;100.00;98108.22;4995481;28;20423;-75
2023/09/05 07:18:13;;;;;;;4.75;1.40;;;18.90;99.90;;;18.68;100.00;98094.16;5000675;28;20147;-75
2023/09/05 07:20:40;;;;;;;3.50;1.50;;;19.10;99.90;;;18.83;100.00;98097.56;4997293;28;20049;-75
2023/09/05 07:23:07;;;;;;;4.30;1.55;;;19.20;99.90;;;19.01;100.00;98099.78;4987219;28;20058;-75
2023/09/05 07:25:38;;;;;;;5.28;2.08;;;19.40;99.90;;;19.26;100.00;98094.63;5001032;28;20054;-75
2023/09/05 07:28:07;;;;;;;2.90;1.42;;;19.60;99.90;;;19.29;100.00;98094.41;5002655;28;20409;-75
2023/09/05 07:30:34;;;;;;;3.13;1.35;;;19.70;99.90;;;19.43;100.00;98097.75;5005652;28;20137;-75
2023/09/05 07:33:02;;;;;;;2.33;1.42;;;19.80;99.90;;;19.49;100.00;98099.09;4989606;28;20140;-75
2023/09/05 07:35:29;;;;;;;3.10;1.92;;;19.90;99.90;;;19.74;100.00;98092.97;4991607;28;20062;-75
2023/09/05 07:37:57;;;;;;;3.65;1.80;;;20.00;99.90;;;19.79;100.00;98090.00;5000150;28;20128;-75
2023/09/05 07:40:26;;;;;;;4.38;1.58;;;20.20;99.90;;;19.81;100.00;98088.94;5003050;28;20088;-75
2023/09/05 07:42:56;;;;;;;4.10;2.03;;;20.30;99.90;;;19.96;100.00;98099.34;5001631;28;20056;-75
2023/09/05 07:45:24;;;;;;;3.95;1.70;;;20.40;99.90;;;20.26;100.00;98106.78;5000837;28;20050;-75
2023/09/05 07:47:52;;;;;;;3.60;1.65;;;20.60;99.90;;;20.37;100.00;98108.63;4997268;28;20069;-75
2023/09/05 07:50:20;;;;;;;3.70;1.42;;;20.70;99.90;;;20.42;100.00;98109.13;4998764;28;20942;-75
2023/09/05 07:52:47;;;;;;;3.17;1.40;;;20.80;99.90;;;20.62;100.00;98108.50;4988282;28;20073;-75
2023/09/05 07:55:15;;;;;;;2.30;1.23;;;21.00;99.90;;;20.74;100.00;98114.66;5002658;28;20075;-75
2023/09/05 07:57:43;;;;;;;3.88;1.55;;;21.10;99.90;;;20.95;100.00;98112.19;5003161;28;20182;-74
2023/09/05 08:00:14;;;;;;;2.25;1.40;;;21.20;99.90;;;21.34;100.00;98111.84;5000585;28;20061;-75
2023/09/05 08:02:43;;;;;;;3.83;1.60;;;21.40;99.90;;;21.96;100.00;98113.97;5000984;28;20132;-76
2023/09/05 08:05:12;;;;;;;2.65;1.30;;;21.50;99.90;;;22.41;100.00;98124.44;5002679;28;20093;-75
2023/09/05 08:07:42;;;;;;;2.83;1.35;;;21.80;99.90;;;22.70;100.00;98137.09;5001621;28;20112;-76
2023/09/05 08:10:10;;;;;;;2.47;1.00;;;22.00;99.90;;;23.55;100.00;98128.09;4996262;28;20569;-76
2023/09/05 08:12:37;;;;;;;2.65;1.30;;;22.50;99.90;;;23.88;100.00;98134.94;5003322;28;20483;-76
2023/09/05 08:15:05;;;;;;;4.10;1.15;;;23.10;99.90;;;24.00;100.00;98133.03;5014680;28;20053;-76
2023/09/05 08:17:33;;;;;;;3.42;1.17;;;23.50;99.90;;;24.65;100.00;98135.19;4997859;28;20050;-76
2023/09/05 08:20:00;;;;;;;2.45;1.17;;;24.30;99.90;;;23.67;100.00;98132.31;4988505;28;20129;-76
2023/09/05 08:22:27;;;;;;;3.63;1.13;;;24.80;99.90;;;24.35;100.00;98129.84;4999320;28;20042;-76
2023/09/05 08:24:55;;;;;;;2.10;1.17;;;25.20;99.90;;;23.81;100.00;98133.78;5005940;28;20145;-76
2023/09/05 08:27:28;;;;;;;2.10;1.10;;;25.80;99.90;;;25.09;100.00;98128.44;5009251;28;20184;-76
2023/09/05 08:29:57;;;;;;;2.10;0.85;;;26.30;99.90;;;26.40;100.00;98116.75;5005444;28;20042;-76
2023/09/05 08:32:25;;;;;;;2.08;0.93;;;27.50;99.90;;;26.00;100.00;98110.03;4999554;28;20046;-75
2023/09/05 08:34:52;;;;;;;2.08;0.85;;;28.50;99.90;;;25.52;100.00;98112.91;4999857;28;20125;-75
2023/09/05 08:37:20;;;;;;;1.95;0.95;;;;;;;26.66;100.00;98114.19;4981680;28;20077;-76
2023/09/05 08:39:48;;;;;;;2.20;0.98;;;29.00;97.70;;;27.48;100.00;98112.09;4992660;28;20050;-75
2023/09/05 08:42:16;;;;;;;2.05;0.90;;;29.50;97.70;;;27.24;100.00;98107.44;4998110;28;20136;-74
2023/09/05 08:44:44;;;;;;;2.80;0.70;;;30.20;96.00;;;27.40;100.00;98104.03;5000329;28;20058;-75
2023/09/05 08:47:11;;;;;;;1.70;0.75;;;30.50;94.70;;;27.00;100.00;98104.59;4996941;28;20042;-75
2023/09/05 08:49:38;;;;;;;3.00;0.80;;;30.40;94.40;;;28.18;100.00;98092.31;5002692;28;20135;-75
2023/09/05 08:52:06;;;;;;;2.28;0.70;;;30.40;93.90;;;27.67;100.00;98104.81;5000903;28;20128;-75
2023/09/05 08:54:34;;;;;;;2.30;0.70;;;30.50;92.80;;;28.68;100.00;98095.88;4998104;28;20054;-75
2023/09/05 08:57:04;;;;;;;2.72;1.00;;;30.50;93.20;;;27.83;100.00;98096.03;5003980;28;20104;-75
2023/09/05 08:59:32;;;;;;;2.35;0.88;;;30.60;92.40;;;28.23;100.00;98092.63;4988928;28;20061;-74
2023/09/05 09:02:00;;;;;;;3.53;0.80;;;30.60;92.20;;;27.87;100.00;98098.25;4996908;28;20049;-75
2023/09/05 09:04:29;;;;;;;2.35;0.82;;;30.50;91.50;;;27.68;100.00;98085.97;5002626;28;20049;-75
2023/09/05 09:07:00;;;;;;;1.10;0.70;;;30.50;91.10;;;27.29;100.00;98101.63;4996900;28;20527;-75
2023/09/05 09:09:35;;;;;;;2.67;0.60;;;30.40;91.00;;;28.57;100.00;98089.84;4987919;28;20054;-75
2023/09/05 09:12:03;;;;;;;1.65;0.88;;;30.30;91.50;;;29.55;100.00;98080.00;4999483;28;20053;-75
2023/09/05 09:14:30;;;;;;;1.48;0.80;;;30.50;91.20;;;28.82;100.00;98091.69;5002830;28;20049;-76
2023/09/05 09:17:04;;;;;;;2.00;0.90;;;30.80;90.70;;;29.90;100.00;98085.88;4997037;28;20632;-74
2023/09/05 09:19:32;;;;;;;2.63;0.85;;;31.10;91.20;;;29.90;100.00;98086.72;4997101;28;20082;-75
2023/09/05 09:22:02;;;;;;;1.67;0.70;;;31.60;91.10;;;29.75;100.00;98083.13;4983516;28;20141;-76
2023/09/05 09:24:34;;;;;;;1.63;0.80;;;32.00;90.30;;;29.52;100.00;98086.53;4995074;28;20046;-75
2023/09/05 09:27:05;;;;;;;4.72;0.80;;;31.70;90.20;;;29.93;100.00;98085.53;5002845;28;20506;-75
2023/09/05 09:29:33;;;;;;;4.65;0.88;;;31.50;89.80;;;29.68;100.00;98084.84;4996742;28;20050;-75
2023/09/05 09:32:04;;;;;;;1.83;0.90;;;31.40;90.00;;;30.06;100.00;98075.09;4997641;28;20100;-75
2023/09/05 09:34:40;;;;;;;2.40;0.90;;;31.70;88.90;;;30.81;100.00;98078.84;4997872;28;20050;-75
2023/09/05 09:37:08;;;;;;;1.80;0.98;;;31.80;87.70;;;30.90;100.00;98071.63;4997882;28;20416;-76
2023/09/05 09:39:35;;;;;;;1.80;0.85;;;32.10;88.40;;;31.05;100.00;98069.78;4998950;28;20565;-75
2023/09/05 09:42:02;;;;;;;1.80;0.77;;;32.30;87.80;;;30.46;100.00;98075.00;4998349;28;20054;-76
2023/09/05 09:44:35;;;;;;;1.13;0.65;;;32.30;86.80;;;31.16;100.00;98076.56;4999646;28;20054;-76
2023/09/05 09:47:03;;;;;;;1.02;0.60;;;32.10;87.90;;;30.50;100.00;98071.78;4987588;28;20050;-75
2023/09/05 09:49:30;;;;;;;1.75;0.70;;;32.20;87.60;;;31.99;100.00;98069.19;4993980;28;20151;-73
2023/09/05 09:52:04;;;;;;;1.00;0.60;;;32.50;87.30;;;31.99;95.84;98055.75;4998659;28;20136;-74
2023/09/05 09:54:39;;;;;;;2.28;0.77;;;33.00;83.40;;;32.73;94.60;98058.13;5002582;28;20780;-75
2023/09/05 09:57:09;;;;;;;1.00;0.60;;;33.20;84.90;;;31.91;96.58;98058.50;4988738;28;20116;-75
2023/09/05 09:59:49;;;;;;;1.38;0.70;;;33.10;83.70;;;31.43;100.00;98054.47;4988814;28;20052;-75
2023/09/05 10:02:17;;;;;;;5.35;0.70;;;32.80;83.90;;;30.81;100.00;98062.78;5003049;28;20046;-74
2023/09/05 10:04:46;;;;;;;0.90;0.50;;;32.40;84.00;;;31.16;100.00;98060.47;4998667;28;20522;-75
2023/09/05 10:07:18;;;;;;;1.70;0.73;;;32.60;85.70;;;32.05;100.00;98050.47;4999506;28;20048;-75
2023/09/05 10:09:47;;;;;;;2.63;0.70;;;32.60;84.60;;;31.52;100.00;98062.38;5001974;28;20069;-75
2023/09/05 10:12:23;;;;;;;1.73;0.70;;;32.70;85.20;;;30.09;100.00;98064.03;4996719;28;20050;-75
2023/09/05 10:14:54;;;;;;;1.90;0.70;;;32.50;83.20;;;30.42;100.00;98055.75;4999420;28;20159;-74
2023/09/05 10:17:22;;;;;;;2.10;0.70;;;31.90;83.70;;;29.97;100.00;98055.56;4983474;28;20795;-75